Time;durP1;ratioP1;P1;durP2;ratioP2;P2;SDS_P1;SDS_P2;PMS_P1;PMS_P2;Temp;Humidity;BMP_temperature;BMP_pressure;BME280_temperature;BME280_humidity;BME280_pressure;Samples;Min_cycle;Max_cycle;Signal;HPM_P1;HPM_P2
2023/07/26 00:00:41;;;;;;;5.50;4.60;;;;;;;15.08;100.00;97832.02;273768;1269;22185;-81
2023/07/26 00:07:21;;;;;;;8.50;5.10;;;;;;;15.10;100.00;97831.52;273913;1269;22185;-81
2023/07/26 00:13:23;;;;;;;9.90;5.10;;;;;;;15.13;100.00;97825.05;273966;1270;22991;-81
2023/07/26 00:19:24;;;;;;;6.50;4.70;;;;;;;15.13;100.00;97823.86;273691;1268;22447;-81
2023/07/26 00:25:26;;;;;;;7.40;5.10;;;;;;;15.16;100.00;97830.02;272925;1268;22441;-82
2023/07/26 00:31:28;;;;;;;8.00;5.30;;;;;;;15.17;100.00;97841.41;273288;1269;23206;-81
2023/07/26 00:37:30;;;;;;;11.60;5.80;;;;;;;15.15;100.00;97843.34;273892;1269;22172;-81
2023/07/26 00:43:55;;;;;;;8.90;5.40;;;;;;;15.15;100.00;97844.55;273103;1269;22648;-81
2023/07/26 00:50:18;;;;;;;8.60;5.50;;;;;;;15.18;100.00;97839.73;272893;1269;22403;-81
2023/07/26 00:56:26;;;;;;;8.60;5.80;;;;;;;15.19;100.00;97843.64;273741;1260;22569;-80
2023/07/26 01:02:43;;;;;;;6.90;4.90;;;;;;;15.20;100.00;97836.06;273788;1269;22433;-81
2023/07/26 01:09:30;;;;;;;8.60;4.90;;;;;;;15.18;100.00;97826.60;273270;1267;22324;-81
2023/07/26 01:15:35;;;;;;;8.00;4.70;;;;;;;15.16;100.00;97823.88;273815;1269;22734;-80
2023/07/26 01:21:59;;;;;;;9.80;4.50;;;;;;;15.16;100.00;97821.52;273194;1272;22467;-80
2023/07/26 01:28:02;;;;;;;7.60;4.90;;;;;;;15.06;100.00;97820.99;273721;1269;22312;-80
2023/07/26 01:34:06;;;;;;;13.00;4.70;;;;;;;15.09;100.00;97810.11;272786;1270;23226;-82
2023/07/26 01:40:08;;;;;;;8.20;4.60;;;;;;;15.11;100.00;97801.73;273803;1269;23309;-80
2023/07/26 01:46:31;;;;;;;8.10;4.80;;;;;;;15.17;100.00;97814.09;271457;1269;23697;-79
2023/07/26 01:52:35;;;;;;;7.70;4.70;;;;;;;15.20;100.00;97825.50;271054;1269;22550;-80
2023/07/26 01:58:37;;;;;;;8.80;4.70;;;;;;;15.22;100.00;97823.30;270712;1269;25319;-80
2023/07/26 02:04:39;;;;;;;4.70;3.90;;;;;;;15.25;100.00;97825.68;270814;1269;22494;-80
2023/07/26 02:10:41;;;;;;;7.50;4.40;;;;;;;15.31;100.00;97831.05;270634;1269;22695;-80
2023/07/26 02:16:42;;;;;;;9.70;4.60;;;;;;;15.34;100.00;97826.00;271077;1269;23215;-80
2023/07/26 02:22:45;;;;;;;8.40;5.20;;;;;;;15.28;100.00;97823.31;270567;1271;24241;-80
2023/07/26 02:29:07;;;;;;;12.30;5.00;;;;;;;15.29;100.00;97825.74;271003;1269;25195;-80
2023/07/26 02:35:09;;;;;;;10.00;4.70;;;;;;;15.26;100.00;97822.50;272209;1269;22426;-82
2023/07/26 02:41:46;;;;;;;9.80;4.30;;;;;;;15.29;100.00;97823.47;273573;1270;22425;-80
2023/07/26 02:47:48;;;;;;;6.30;4.60;;;;;;;15.31;100.00;97823.31;272872;1269;22503;-79
2023/07/26 02:54:11;;;;;;;6.80;4.60;;;;;;;15.31;100.00;97825.13;274032;1270;22764;-79
2023/07/26 03:00:12;;;;;;;7.00;4.70;;;;;;;15.35;100.00;97818.56;273099;1268;22392;-80
2023/07/26 03:06:14;;;;;;;7.20;4.80;;;;;;;15.35;100.00;97820.85;273836;1269;22401;-79
2023/07/26 03:12:16;;;;;;;7.00;5.10;;;;;;;15.30;100.00;97822.55;273134;1264;22311;-80
2023/07/26 03:18:18;;;;;;;6.20;4.00;;;;;;;15.24;100.00;97823.83;273415;1269;136649;-80
2023/07/26 03:24:20;;;;;;;7.10;5.00;;;;;;;15.22;100.00;97826.23;273818;1270;22222;-80
2023/07/26 03:30:23;;;;;;;6.70;5.30;;;;;;;15.28;100.00;97837.42;273832;1269;22418;-79
2023/07/26 03:36:51;;;;;;;9.10;5.10;;;;;;;15.31;100.00;97844.11;272080;1269;22559;-80
2023/07/26 03:42:53;;;;;;;7.40;5.40;;;;;;;15.38;100.00;97853.19;271075;1270;23846;-80
2023/07/26 03:48:55;;;;;;;6.80;5.10;;;;;;;15.44;100.00;97856.33;271141;1266;22559;-81
2023/07/26 03:55:10;;;;;;;8.60;5.40;;;;;;;15.48;100.00;97848.59;271225;1269;25332;-80
2023/07/26 04:01:13;;;;;;;6.70;4.60;;;;;;;15.50;100.00;97844.34;273747;1269;22374;-79
2023/07/26 04:07:15;;;;;;;6.80;5.30;;;;;;;15.55;100.00;97844.45;272963;1255;25438;-81
2023/07/26 04:13:17;;;;;;;9.70;5.10;;;;;;;15.58;100.00;97853.59;273674;1269;22497;-80
2023/07/26 04:19:19;;;;;;;6.70;5.10;;;;;;;15.62;100.00;97865.54;273845;1270;22395;-80
2023/07/26 04:26:01;;;;;;;7.60;5.00;;;;;;;15.65;100.00;97861.52;273876;1257;22365;-80
2023/07/26 04:32:04;;;;;;;9.70;5.60;;;;;;;15.64;100.00;97863.58;273807;1269;22466;-80
2023/07/26 04:38:05;;;;;;;12.30;7.20;;;;;;;15.69;100.00;97873.23;273714;1269;22475;-80
2023/07/26 04:44:08;;;;;;;11.90;6.60;;;;;;;15.76;100.00;97877.77;272972;1267;22640;-81
2023/07/26 04:50:12;;;;;;;13.80;7.70;;;;;;;15.83;100.00;97867.89;270912;1269;22527;-82
2023/07/26 04:56:15;;;;;;;12.00;7.10;;;;;;;15.88;100.00;97859.16;272879;1263;23471;-81
2023/07/26 05:02:17;;;;;;;13.90;8.00;;;;;;;15.93;100.00;97868.39;273567;1269;22413;-81
2023/07/26 05:08:20;;;;;;;21.60;11.70;;;;;;;16.03;100.00;97873.71;273576;1269;22328;-81
2023/07/26 05:14:22;;;;;;;20.20;11.20;;;;;;;16.10;100.00;97863.89;273637;1269;23405;-81
2023/07/26 05:20:49;;;;;;;23.10;12.40;;;;;;;16.21;100.00;97872.57;272561;1268;22285;-83
2023/07/26 05:26:54;;;;;;;19.50;12.10;;;;;;;16.33;100.00;97879.70;270888;1268;21754;-81
2023/07/26 05:32:57;;;;;;;28.70;13.30;;;;;;;16.43;100.00;97884.86;272987;1264;22431;-79
2023/07/26 05:38:59;;;;;;;24.90;16.40;;;;;;;16.50;100.00;97872.58;272187;1269;25366;-80
2023/07/26 05:45:01;;;;;;;28.70;15.50;;;;;;;16.58;100.00;97871.86;272569;1269;22377;-79
2023/07/26 05:51:09;;;;;;;27.80;16.70;;;;;;;16.69;100.00;97870.09;272682;1269;22565;-81
2023/07/26 05:57:11;;;;;;;33.70;17.90;;;;;;;16.81;100.00;97866.48;270598;1269;22521;-80
2023/07/26 06:03:13;;;;;;;38.50;20.90;;;;;;;16.88;100.00;97866.11;271858;1268;23347;-80
2023/07/26 06:09:35;;;;;;;40.00;23.50;;;;;;;16.95;100.00;97866.04;271868;1268;23628;-82
2023/07/26 06:32:18;;;;;;;32.50;21.00;;;;;;;17.34;100.00;97869.50;263877;1295;548822;-85
2023/07/26 06:38:22;;;;;;;32.90;19.10;;;;;;;17.49;100.00;97876.12;268612;1271;22957;-85
2023/07/26 06:44:23;;;;;;;32.40;20.60;;;;;;;17.58;100.00;97885.79;267961;1277;22354;-85
2023/07/26 06:50:25;;;;;;;30.50;19.50;;;;;;;17.59;100.00;97888.04;268325;1271;24290;-85
2023/07/26 06:56:42;;;;;;;24.90;17.30;;;;;;;17.59;100.00;97895.70;272294;1267;23265;-85
2023/07/26 07:03:08;;;;;;;;;;;;;;;17.62;100.00;97893.79;272327;1283;23611;-85
2023/07/26 07:10:06;;;;;;;21.90;15.30;;;;;;;17.64;100.00;97901.13;270931;1280;27684;-85
2023/07/26 07:16:28;;;;;;;25.80;16.80;;;;;;;17.62;100.00;97903.83;268624;1280;22570;-85
2023/07/26 07:23:05;;;;;;;25.10;17.00;;;;;;;17.60;100.00;97905.39;271081;1280;23480;-84
2023/07/26 07:29:12;;;;;;;24.50;17.60;;;;;;;17.52;100.00;97901.02;271544;1272;22211;-85
2023/07/26 07:35:39;;;;;;;23.20;15.60;;;;;;;17.44;100.00;97899.68;271802;1281;22193;-84
2023/07/26 07:42:26;;;;;;;25.10;16.90;;;;;;;17.31;100.00;97907.43;269746;1269;22568;-85
2023/07/26 07:49:22;;;;;;;27.50;17.60;;;;;;;17.20;100.00;97911.28;269717;1265;22554;-86
2023/07/26 07:56:29;;;;;;;29.10;15.30;;;;;;;17.00;100.00;97923.84;273555;1275;22203;-86
2023/07/26 08:03:17;;;;;;;26.40;15.30;;;;;;;16.79;100.00;97928.22;273618;1274;22254;-85
2023/07/26 08:11:17;;;;;;;20.50;11.40;;;;;;;16.64;100.00;97948.57;272355;1275;23673;-86
2023/07/26 08:18:42;;;;;;;18.70;10.80;;;;;;;16.50;100.00;97945.13;269501;1280;22260;-87
2023/07/26 08:33:00;;;;;;;14.20;10.70;;;;;;;16.51;100.00;97946.13;268645;1275;22550;-85
2023/07/26 08:39:36;;;;;;;20.20;11.20;;;;;;;16.52;100.00;97957.31;272029;1282;22325;-86
2023/07/26 08:46:02;;;;;;;13.60;7.30;;;;;;;16.36;100.00;97961.78;273217;1268;23048;-86
2023/07/26 08:52:49;;;;;;;7.40;5.50;;;;;;;16.13;100.00;97962.95;272650;1270;22209;-87
2023/07/26 08:59:35;;;;;;;10.70;5.40;;;;;;;16.05;100.00;97966.09;274220;1269;22164;-87
2023/07/26 09:06:04;;;;;;;8.10;6.10;;;;;;;16.07;100.00;97977.79;274160;1274;23239;-86
2023/07/26 09:12:08;;;;;;;7.90;6.00;;;;;;;16.16;100.00;97985.74;273915;1273;23192;-86
2023/07/26 09:18:41;;;;;;;14.20;6.20;;;;;;;16.22;100.00;97998.75;273906;1274;22209;-86
2023/07/26 09:25:06;;;;;;;6.50;5.10;;;;;;;16.23;100.00;98008.27;273898;1259;22943;-86
2023/07/26 09:39:05;;;;;;;8.60;4.60;;;;;;;15.99;100.00;98024.21;274017;1268;23299;-85
2023/07/26 09:46:17;;;;;;;12.70;5.90;;;;;;;15.87;100.00;98028.54;273070;1279;22247;-86
2023/07/26 10:00:34;;;;;;;5.90;4.30;;;;;;;15.73;100.00;98034.41;271790;1275;22710;-85
2023/07/26 10:06:57;;;;;;;5.60;4.40;;;;;;;15.54;100.00;98042.35;269994;1271;22346;-86
2023/07/26 10:14:24;;;;;;;7.70;4.10;;;;;;;15.37;100.00;98055.83;269840;1272;22778;-86
2023/07/26 10:28:59;;;;;;;9.20;5.30;;;;;;;15.20;100.00;98070.85;272525;1272;22206;-87
2023/07/26 10:35:42;;;;;;;6.70;5.00;;;;;;;15.25;100.00;98076.48;272274;1269;22524;-86
2023/07/26 10:50:02;;;;;;;7.50;5.80;;;;;;;15.22;100.00;98087.89;273655;1275;22217;-86
2023/07/26 10:56:58;;;;;;;7.60;6.30;;;;;;;15.26;100.00;98092.77;274010;1268;23910;-86
2023/07/26 11:04:07;;;;;;;6.90;5.80;;;;;;;15.34;100.00;98097.73;273145;1280;22292;-86
2023/07/26 11:11:36;;;;;;;6.90;5.60;;;;;;;15.45;100.00;98099.23;273243;1278;22259;-86
2023/07/26 11:18:31;;;;;;;6.30;4.90;;;;;;;15.55;100.00;98102.40;272765;1273;22189;-86
2023/07/26 11:32:59;;;;;;;4.30;2.20;;;;;;;15.36;100.00;98121.87;273001;1279;22301;-87
2023/07/26 11:40:43;;;;;;;3.30;2.10;;;;;;;14.82;100.00;98144.78;272341;1262;22444;-87
2023/07/26 11:47:45;;;;;;;3.80;3.00;;;;;;;14.40;100.00;98156.98;271477;1282;22238;-87
2023/07/26 11:53:54;;;;;;;7.70;3.20;;;;;;;14.21;100.00;98156.80;270447;1276;22536;-87
2023/07/26 12:00:38;;;;;;;5.50;2.80;;;;;;;14.10;100.00;98165.71;268750;1281;23908;-87
2023/07/26 12:07:01;;;;;;;4.50;2.80;;;;;;;14.04;100.00;98181.30;272170;1275;22290;-87
2023/07/26 12:13:08;;;;;;;2.60;2.20;;;;;;;14.03;100.00;98193.09;272945;1268;22412;-87
2023/07/26 12:19:12;;;;;;;2.80;2.40;;;;;;;14.03;100.00;98201.43;273590;1269;22418;-88
2023/07/26 12:25:14;;;;;;;2.50;2.30;;;;;;;13.99;100.00;98207.48;273354;1271;22518;-87
2023/07/26 12:31:21;;;;;;;4.80;2.50;;;;;;;13.98;100.00;98213.70;270164;1268;23970;-85
2023/07/26 12:37:30;;;;;;;4.20;2.70;;;;;;;13.97;100.00;98222.98;272363;1269;22118;-87
2023/07/26 12:43:32;;;;;;;4.60;1.90;;;;;;;13.94;100.00;98234.03;272231;1269;22227;-86
2023/07/26 12:49:35;;;;;;;2.60;1.70;;;;;;;13.89;100.00;98249.67;273045;1269;22518;-84
2023/07/26 12:55:37;;;;;;;3.40;1.40;;;;;;;13.82;100.00;98263.38;273342;1260;22485;-88
2023/07/26 13:01:39;;;;;;;4.70;2.20;;;;;;;13.66;100.00;98277.89;273122;1269;22376;-87
2023/07/26 13:07:41;;;;;;;6.90;2.60;;;;;;;13.49;100.00;98294.05;272680;1268;22374;-86
2023/07/26 13:13:43;;;;;;;3.60;1.80;;;;;;;13.42;100.00;98305.73;273365;1268;22443;-86
2023/07/26 13:19:44;;;;;;;7.40;2.80;;;;;;;13.42;100.00;98319.02;273607;1268;22252;-86
2023/07/26 13:25:46;;;;;;;3.50;2.00;;;;;;;13.40;100.00;98329.25;271073;1267;22572;-86
2023/07/26 13:31:48;;;;;;;3.70;1.90;;;;;;;13.38;100.00;98340.13;270920;1269;22213;-84
2023/07/26 13:37:50;;;;;;;3.70;2.20;;;;;;;13.30;100.00;98346.09;273433;1268;23613;-87
2023/07/26 13:43:52;;;;;;;2.80;2.00;;;;;;;13.28;100.00;98356.56;271573;1267;22821;-85
2023/07/26 13:49:54;;;;;;;7.10;1.90;;;;;;;13.25;100.00;98354.78;270684;1268;22531;-85
2023/07/26 13:55:55;;;;;;;9.40;3.00;;;;;;;13.24;100.00;98358.16;270227;1269;22523;-84
2023/07/26 14:01:57;;;;;;;6.60;3.70;;;;;;;13.20;100.00;98368.73;270133;1268;22487;-86
2023/07/26 14:07:58;;;;;;;7.60;3.70;;;;;;;13.18;100.00;98376.44;270486;1268;23514;-85
2023/07/26 14:14:02;;;;;;;12.20;4.40;;;;;;;13.18;100.00;98378.17;273468;1269;22856;-86
2023/07/26 14:20:05;;;;;;;9.50;3.90;;;;;;;13.20;100.00;98378.15;273418;1269;22392;-85
2023/07/26 14:26:07;;;;;;;4.60;3.90;;;;;;;13.23;100.00;98381.27;273414;1270;24232;-85
2023/07/26 14:32:09;;;;;;;6.70;4.00;;;;;;;13.28;100.00;98388.36;273490;1268;22401;-86
2023/07/26 14:38:10;;;;;;;6.60;4.40;;;;;;;13.33;100.00;98393.49;273386;1258;23360;-86
2023/07/26 14:44:12;;;;;;;8.10;5.20;;;;;;;13.36;100.00;98394.10;273485;1269;22567;-90
2023/07/26 14:50:17;;;;;;;5.50;4.10;;;;;;;13.43;100.00;98395.92;273516;1270;22927;-84
2023/07/26 14:56:19;;;;;;;4.80;2.60;;;;;;;13.46;100.00;98403.27;273571;1268;22640;-85
2023/07/26 15:02:20;;;;;;;3.30;1.70;;;;;;;13.35;100.00;98419.39;272612;1268;22593;-86
2023/07/26 15:08:22;;;;;;;3.00;1.90;;;;;;;13.14;100.00;98429.00;273517;1269;22454;-86
2023/07/26 15:14:24;;;;;;;3.00;1.90;;;;;;;13.05;100.00;98437.08;273455;1267;22385;-85
2023/07/26 15:20:26;;;;;;;3.20;1.80;;;;;;;13.05;100.00;98445.40;273390;1269;22729;-88
2023/07/26 15:26:27;;;;;;;2.40;1.70;;;;;;;13.05;100.00;98451.84;273460;1269;22393;-85
2023/07/26 15:32:29;;;;;;;3.80;2.20;;;;;;;13.00;100.00;98446.36;273725;1267;23198;-86
2023/07/26 15:38:31;;;;;;;5.50;1.80;;;;;;;12.98;100.00;98455.16;273115;1269;22584;-85
2023/07/26 15:44:33;;;;;;;5.10;2.10;;;;;;;13.00;100.00;98458.39;272847;1268;22376;-85
2023/07/26 15:50:34;;;;;;;3.80;2.00;;;;;;;13.02;100.00;98460.42;273498;1268;22381;-89
2023/07/26 15:56:36;;;;;;;5.30;2.00;;;;;;;13.01;100.00;98463.09;273424;1257;23492;-85
2023/07/26 16:02:38;;;;;;;2.90;2.00;;;;;;;13.03;100.00;98467.00;273447;1268;22305;-86
2023/07/26 16:08:41;;;;;;;4.80;2.00;;;;;;;13.06;100.00;98469.64;273696;1268;22382;-86
2023/07/26 16:14:42;;;;;;;5.20;2.80;;;;;;;13.01;100.00;98464.81;273613;1260;22438;-85
2023/07/26 16:20:45;;;;;;;5.50;2.30;;;;;;;12.97;100.00;98460.59;272296;1268;22441;-86
2023/07/26 16:26:46;;;;;;;4.60;2.60;;;;;;;12.96;100.00;98456.98;273472;1268;23458;-91
2023/07/26 16:32:48;;;;;;;3.00;2.30;;;;;;;12.89;100.00;98457.66;273342;1268;22393;-85
2023/07/26 16:38:57;;;;;;;6.40;3.20;;;;;;;12.86;100.00;98456.10;273760;1253;22423;-85
2023/07/26 16:44:58;;;;;;;12.50;4.60;;;;;;;12.86;100.00;98457.52;272285;1262;22572;-85
2023/07/26 16:51:00;;;;;;;6.50;4.10;;;;;;;12.88;100.00;98457.34;271706;1267;22192;-85
2023/07/26 16:57:02;;;;;;;9.00;3.60;;;;;;;12.88;100.00;98455.46;273733;1267;22364;-85
2023/07/26 17:03:04;;;;;;;7.10;3.50;;;;;;;12.88;100.00;98456.80;272586;1267;22585;-84
2023/07/26 17:09:06;;;;;;;8.80;3.70;;;;;;;12.90;100.00;98457.17;270562;1267;22554;-85
2023/07/26 17:15:08;;;;;;;5.60;3.30;;;;;;;12.94;100.00;98461.46;257686;1267;20002376;-85
2023/07/26 17:21:11;;;;;;;7.50;3.80;;;;;;;13.00;100.00;98468.59;272968;1266;22621;-85
2023/07/26 17:27:12;;;;;;;8.60;4.60;;;;;;;13.06;100.00;98479.55;272160;1261;22621;-85
2023/07/26 17:33:14;;;;;;;6.70;4.30;;;;;;;13.07;100.00;98485.19;270802;1267;24415;-84
2023/07/26 17:39:16;;;;;;;10.10;5.20;;;;;;;13.09;100.00;98484.48;271026;1264;22888;-84
2023/07/26 17:45:18;;;;;;;13.90;7.50;;;;;;;13.12;100.00;98487.75;271280;1269;22513;-85
2023/07/26 17:51:20;;;;;;;14.00;8.40;;;;;;;13.11;100.00;98491.23;273436;1266;22456;-85
2023/07/26 17:57:23;;;;;;;14.30;9.30;;;;;;;13.06;100.00;98491.87;273478;1264;22468;-84
2023/07/26 18:03:25;;;;;;;13.70;8.30;;;;;;;12.97;100.00;98494.34;273560;1257;22566;-85
2023/07/26 18:09:27;;;;;;;12.40;6.50;;;;;;;12.96;100.00;98501.88;271580;1268;22542;-84
2023/07/26 18:15:28;;;;;;;8.10;4.70;;;;;;;13.00;100.00;98505.73;273299;1257;23871;-84
2023/07/26 18:21:32;;;;;;;7.20;4.50;;;;;;;13.01;100.00;98507.06;273375;1265;22176;-85
2023/07/26 18:27:39;;;;;;;7.80;4.70;;;;;;;12.97;100.00;98514.90;273320;1268;22196;-86
2023/07/26 18:33:42;;;;;;;6.60;4.40;;;;;;;12.96;100.00;98523.77;273264;1268;118837;-84
2023/07/26 18:39:43;;;;;;;6.20;4.50;;;;;;;12.97;100.00;98531.23;273507;1268;22444;-84
2023/07/26 18:45:45;;;;;;;5.00;4.00;;;;;;;12.99;100.00;98540.96;273476;1268;23091;-85
2023/07/26 18:51:47;;;;;;;7.70;4.30;;;;;;;12.97;100.00;98539.86;273358;1258;22452;-84
2023/07/26 18:57:49;;;;;;;6.10;4.00;;;;;;;12.94;100.00;98541.38;273632;1256;22501;-85
2023/07/26 19:03:50;;;;;;;7.40;4.90;;;;;;;12.92;100.00;98540.27;273682;1266;24956;-84
2023/07/26 19:09:52;;;;;;;5.30;4.50;;;;;;;12.95;100.00;98541.68;273725;1262;22414;-84
2023/07/26 19:15:59;;;;;;;7.70;4.90;;;;;;;12.98;100.00;98542.77;273503;1257;23382;-84
2023/07/26 19:22:02;;;;;;;9.30;4.80;;;;;;;12.94;100.00;98546.32;273647;1268;23677;-85
2023/07/26 19:28:04;;;;;;;10.30;5.30;;;;;;;12.92;100.00;98551.81;273675;1268;22472;-85
2023/07/26 19:34:05;;;;;;;7.20;5.00;;;;;;;12.90;100.00;98553.88;273571;1256;22354;-85
2023/07/26 19:40:08;;;;;;;8.80;5.90;;;;;;;12.90;100.00;98559.85;273511;1268;22318;-84
2023/07/26 19:46:14;;;;;;;6.80;4.80;;;;;;;12.87;100.00;98565.90;273023;1257;22949;-85
2023/07/26 19:52:16;;;;;;;5.60;4.40;;;;;;;12.82;100.00;98568.83;272912;1262;22371;-84
2023/07/26 19:58:18;;;;;;;9.10;5.00;;;;;;;12.81;100.00;98568.83;271351;1267;22399;-84
2023/07/26 20:04:22;;;;;;;8.10;5.10;;;;;;;12.79;100.00;98569.70;271968;1259;22489;-83
2023/07/26 20:10:23;;;;;;;9.50;5.10;;;;;;;12.78;100.00;98573.63;273620;1257;23615;-84
2023/07/26 20:16:25;;;;;;;8.30;4.80;;;;;;;12.76;100.00;98572.23;273524;1268;22240;-84
2023/07/26 20:22:27;;;;;;;7.70;4.80;;;;;;;12.71;100.00;98576.71;273508;1259;22424;-83
2023/07/26 20:28:29;;;;;;;7.10;5.10;;;;;;;12.68;100.00;98571.23;273602;1268;22492;-83
2023/07/26 20:34:30;;;;;;;8.10;5.00;;;;;;;12.67;100.00;98569.52;273268;1257;22559;-84
2023/07/26 20:40:32;;;;;;;7.70;5.70;;;;;;;12.67;100.00;98562.77;269999;1256;22550;-84
2023/07/26 20:46:33;;;;;;;8.40;5.00;;;;;;;12.64;100.00;98561.14;270154;1263;22647;-84
2023/07/26 20:52:35;;;;;;;6.20;5.30;;;;;;;12.60;100.00;98564.38;272996;1267;22478;-84
2023/07/26 20:58:36;;;;;;;6.20;5.20;;;;;;;12.58;100.00;98562.80;273543;1268;22557;-83
2023/07/26 21:04:38;;;;;;;6.50;4.80;;;;;;;12.55;100.00;98562.73;271630;1253;22555;-84
2023/07/26 21:10:40;;;;;;;7.20;4.90;;;;;;;12.47;100.00;98567.39;270016;1257;22548;-84
2023/07/26 21:16:41;;;;;;;8.30;4.80;;;;;;;12.42;100.00;98567.10;273323;1268;22392;-84
2023/07/26 21:22:43;;;;;;;7.60;5.40;;;;;;;12.39;100.00;98566.48;273637;1257;22198;-84
2023/07/26 21:28:45;;;;;;;5.80;4.60;;;;;;;12.36;100.00;98568.29;273730;1268;22424;-84
2023/07/26 21:34:46;;;;;;;5.60;5.00;;;;;;;12.35;100.00;98569.62;273709;1259;22266;-84
2023/07/26 21:40:51;;;;;;;9.50;5.20;;;;;;;12.28;100.00;98575.29;273649;1268;22513;-84
2023/07/26 21:46:53;;;;;;;5.60;4.40;;;;;;;12.21;100.00;98577.75;273694;1258;22279;-85
2023/07/26 21:52:55;;;;;;;7.50;5.90;;;;;;;12.18;100.00;98584.40;273615;1268;22407;-84
2023/07/26 21:58:57;;;;;;;9.40;4.70;;;;;;;12.19;100.00;98587.77;273693;1268;22898;-84
2023/07/26 22:04:58;;;;;;;11.00;5.30;;;;;;;12.21;100.00;98592.10;273659;1256;22470;-82
2023/07/26 22:11:00;;;;;;;7.20;4.90;;;;;;;12.18;100.00;98594.13;270298;1255;22544;-84
2023/07/26 22:17:02;;;;;;;6.40;5.20;;;;;;;12.16;100.00;98598.36;270179;1255;22653;-85
2023/07/26 22:23:04;;;;;;;11.80;4.90;;;;;;;12.16;100.00;98595.94;269670;1268;23681;-85
2023/07/26 22:29:06;;;;;;;7.10;4.80;;;;;;;12.12;100.00;98587.95;270241;1258;22738;-85
2023/07/26 22:35:08;;;;;;;8.80;5.30;;;;;;;12.09;100.00;98585.52;270363;1269;23195;-84
2023/07/26 22:41:10;;;;;;;9.40;4.70;;;;;;;12.06;100.00;98580.13;271478;1265;24752;-85
2023/07/26 22:47:12;;;;;;;7.00;4.80;;;;;;;12.03;100.00;98581.77;273646;1256;23736;-84
2023/07/26 22:53:14;;;;;;;6.80;4.30;;;;;;;12.05;100.00;98585.60;271208;1268;23713;-84
2023/07/26 22:59:17;;;;;;;5.40;4.70;;;;;;;12.03;100.00;98590.85;270374;1268;22235;-84
2023/07/26 23:05:19;;;;;;;9.90;4.90;;;;;;;12.02;100.00;98588.66;269924;1262;23688;-84
2023/07/26 23:11:21;;;;;;;11.10;5.20;;;;;;;11.94;100.00;98597.84;270188;1256;24029;-85
2023/07/26 23:17:22;;;;;;;7.80;5.20;;;;;;;11.90;100.00;98605.67;273189;1257;22425;-84
2023/07/26 23:23:24;;;;;;;5.30;4.80;;;;;;;11.90;100.00;98619.55;272801;1255;24370;-84
2023/07/26 23:29:26;;;;;;;6.80;5.10;;;;;;;11.90;100.00;98616.66;271860;1267;22402;-85
2023/07/26 23:35:28;;;;;;;11.00;5.50;;;;;;;11.77;100.00;98600.43;271019;1268;25369;-85
2023/07/26 23:41:29;;;;;;;9.00;5.30;;;;;;;11.74;100.00;98597.92;269757;1268;22632;-85
2023/07/26 23:47:32;;;;;;;8.30;6.30;;;;;;;11.79;100.00;98597.38;269747;1268;23195;-84
2023/07/26 23:53:33;;;;;;;8.90;6.30;;;;;;;11.78;100.00;98579.98;269549;1268;22548;-85
2023/07/26 23:59:35;;;;;;;15.10;7.10;;;;;;;11.74;100.00;98588.68;270767;1268;22380;-85
